Time;durP1;ratioP1;P1;durP2;ratioP2;P2;SDS_P1;SDS_P2;PMS_P1;PMS_P2;Temp;Humidity;BMP_temperature;BMP_pressure;BME280_temperature;BME280_humidity;BME280_pressure;Samples;Min_cycle;Max_cycle;Signal;HPM_P1;HPM_P2
2021/09/04 00:00:17;;;;;;;11.70;8.20;;;;;;;;;;5047051;28;20287;-85
2021/09/04 00:02:42;;;;;;;13.88;7.72;;;;;;;;;;5051534;28;20872;-86
2021/09/04 00:05:08;;;;;;;12.25;7.43;;;;;;;;;;5048453;28;20082;-85
2021/09/04 00:07:33;;;;;;;11.93;7.68;;;;;;;;;;5041245;28;20021;-84
2021/09/04 00:09:59;;;;;;;13.02;7.68;;;;;;;;;;5045592;28;20041;-84
2021/09/04 00:12:26;;;;;;;12.70;7.82;;;;;;;;;;5048298;28;20672;-84
2021/09/04 00:14:51;;;;;;;13.60;7.88;;;;;;;;;;5043371;28;20028;-85
2021/09/04 00:17:17;;;;;;;14.55;8.07;;;;;;;;;;5029129;28;20018;-84
2021/09/04 00:19:42;;;;;;;10.77;7.13;;;;;;;;;;5049626;28;20110;-86
2021/09/04 00:22:07;;;;;;;12.37;7.83;;;;;;;;;;5044276;28;20079;-85
2021/09/04 00:24:32;;;;;;;15.90;7.80;;;;;;;;;;5051089;28;20758;-85
2021/09/04 00:26:58;;;;;;;13.00;7.23;;;;;;;;;;5043568;28;20032;-85
2021/09/04 00:29:23;;;;;;;12.03;7.47;;;;;;;;;;5045405;28;20290;-85
2021/09/04 00:31:48;;;;;;;9.50;6.75;;;;;;;;;;5048091;28;20258;-85
2021/09/04 00:34:14;;;;;;;12.10;7.38;;;;;;;;;;5041920;28;20099;-85
2021/09/04 00:36:40;;;;;;;11.73;7.13;;;;;;;;;;5045587;28;20021;-84
2021/09/04 00:39:06;;;;;;;9.02;7.00;;;;;;;;;;5042363;28;20021;-85
2021/09/04 00:41:34;;;;;;;9.68;7.07;;;;;;;;;;5046781;28;21523;-86
2021/09/04 00:44:00;;;;;;;11.45;7.55;;;;;;;;;;5049075;28;20676;-84
2021/09/04 00:46:25;;;;;;;14.15;7.68;;;;;;;;;;5029672;28;20025;-85
2021/09/04 00:48:51;;;;;;;9.52;7.03;;;;;;;;;;5047755;28;20495;-86
2021/09/04 00:51:16;;;;;;;13.83;8.40;;;;;;;;;;5040759;28;20479;-86
2021/09/04 00:53:42;;;;;;;12.32;8.05;;;;;;;;;;5048504;28;20587;-85
2021/09/04 00:56:07;;;;;;;10.60;6.90;;;;;;;;;;5047199;28;20025;-86
2021/09/04 00:58:33;;;;;;;15.05;7.68;;;;;;;;;;5051095;28;20757;-85
2021/09/04 01:00:58;;;;;;;13.32;7.63;;;;;;;;;;5042170;28;20404;-85
2021/09/04 01:03:24;;;;;;;11.70;7.28;;;;;;;;;;5029337;28;20055;-85
2021/09/04 01:05:50;;;;;;;14.95;7.70;;;;;;;;;;5033141;28;20031;-84
2021/09/04 01:08:15;;;;;;;10.98;7.95;;;;;;;;;;5048082;28;20028;-84
2021/09/04 01:10:40;;;;;;;14.45;7.30;;;;;;;;;;5032711;28;20029;-85
2021/09/04 01:13:06;;;;;;;11.10;7.07;;;;;;;;;;5050575;28;20035;-86
2021/09/04 01:15:31;;;;;;;11.40;7.35;;;;;;;;;;5044919;28;20373;-85
2021/09/04 01:18:00;;;;;;;12.00;7.57;;;;;;;;;;5030484;28;20033;-85
2021/09/04 01:20:26;;;;;;;13.43;7.75;;;;;;;;;;5038060;28;20037;-85
2021/09/04 01:22:51;;;;;;;15.02;8.02;;;;;;;;;;5044142;28;20357;-84
2021/09/04 01:25:21;;;;;;;11.95;7.20;;;;;;;;;;5049344;28;20033;-85
2021/09/04 01:27:47;;;;;;;13.27;7.97;;;;;;;;;;5044265;28;20387;-86
2021/09/04 01:30:12;;;;;;;11.30;7.67;;;;;;;;;;5044606;28;20020;-86
2021/09/04 01:32:37;;;;;;;11.02;7.35;;;;;;;;;;5047989;28;20275;-86
2021/09/04 01:35:04;;;;;;;13.10;8.10;;;;;;;;;;5026912;28;20025;-87
2021/09/04 01:37:29;;;;;;;13.27;7.68;;;;;;;;;;5045097;28;20013;-86
2021/09/04 01:39:54;;;;;;;9.90;7.05;;;;;;;;;;5045555;28;20024;-85
2021/09/04 01:42:20;;;;;;;13.40;7.55;;;;;;;;;;5037975;28;20018;-84
2021/09/04 01:44:45;;;;;;;12.53;8.60;;;;;;;;;;5023624;28;20116;-85
2021/09/04 01:47:10;;;;;;;11.43;7.13;;;;;;;;;;5037265;28;20029;-86
2021/09/04 01:49:36;;;;;;;11.68;7.93;;;;;;;;;;5050073;28;20295;-87
2021/09/04 01:52:02;;;;;;;13.13;7.35;;;;;;;;;;5047494;28;20029;-86
2021/09/04 01:54:27;;;;;;;12.60;7.40;;;;;;;;;;5048246;28;20116;-86
2021/09/04 01:56:53;;;;;;;13.15;7.78;;;;;;;;;;5047280;28;20029;-86
2021/09/04 01:59:18;;;;;;;13.80;8.17;;;;;;;;;;5039645;28;20063;-85
2021/09/04 02:01:43;;;;;;;11.80;8.30;;;;;;;;;;5044199;28;20304;-86
2021/09/04 02:04:08;;;;;;;10.17;7.07;;;;;;;;;;5045114;28;20115;-87
2021/09/04 02:06:34;;;;;;;12.02;7.57;;;;;;;;;;5043726;28;20283;-85
2021/09/04 02:08:59;;;;;;;11.03;7.23;;;;;;;;;;5041721;28;20025;-85
2021/09/04 02:11:24;;;;;;;10.80;7.90;;;;;;;;;;5046417;28;20021;-85
2021/09/04 02:13:49;;;;;;;11.98;7.28;;;;;;;;;;5044867;28;20119;-85
2021/09/04 02:16:15;;;;;;;12.88;7.82;;;;;;;;;;5048061;28;20017;-85
2021/09/04 02:18:40;;;;;;;25.05;8.27;;;;;;;;;;5046234;28;20040;-86
2021/09/04 02:21:05;;;;;;;10.43;7.10;;;;;;;;;;5042981;28;20047;-87
2021/09/04 02:23:31;;;;;;;11.07;7.33;;;;;;;;;;5044570;28;20276;-85
2021/09/04 02:25:56;;;;;;;12.82;7.65;;;;;;;;;;5044001;28;20271;-85
2021/09/04 02:28:21;;;;;;;10.27;6.85;;;;;;;;;;5043113;28;20056;-86
2021/09/04 02:30:47;;;;;;;15.87;8.93;;;;;;;;;;5042282;28;20027;-85
2021/09/04 02:33:12;;;;;;;12.47;7.47;;;;;;;;;;5047003;28;20267;-84
2021/09/04 02:35:38;;;;;;;13.07;7.50;;;;;;;;;;5041946;28;20630;-85
2021/09/04 02:38:03;;;;;;;9.88;7.22;;;;;;;;;;5041613;28;20376;-84
2021/09/04 02:40:28;;;;;;;12.73;7.88;;;;;;;;;;5046141;28;20028;-85
2021/09/04 02:42:54;;;;;;;11.13;7.20;;;;;;;;;;5049519;28;20104;-86
2021/09/04 02:45:19;;;;;;;12.33;7.30;;;;;;;;;;5038135;28;20033;-87
2021/09/04 02:47:44;;;;;;;12.17;8.07;;;;;;;;;;5028674;28;20036;-86
2021/09/04 02:50:10;;;;;;;12.27;7.50;;;;;;;;;;5043389;28;20317;-88
2021/09/04 02:52:35;;;;;;;13.25;7.30;;;;;;;;;;5045182;28;20299;-86
2021/09/04 02:55:00;;;;;;;10.50;7.10;;;;;;;;;;5041500;28;20022;-87
2021/09/04 02:57:26;;;;;;;11.95;6.70;;;;;;;;;;5043164;28;20009;-87
2021/09/04 02:59:51;;;;;;;10.80;7.37;;;;;;;;;;5048180;28;20025;-88
2021/09/04 03:02:16;;;;;;;11.13;7.63;;;;;;;;;;5048761;28;20033;-88
2021/09/04 03:04:42;;;;;;;11.75;7.50;;;;;;;;;;5048031;28;20031;-87
2021/09/04 03:07:07;;;;;;;12.47;8.37;;;;;;;;;;5035678;28;20060;-88
2021/09/04 03:09:32;;;;;;;11.13;7.73;;;;;;;;;;5018624;28;20033;-87
2021/09/04 03:11:57;;;;;;;12.50;7.28;;;;;;;;;;5024365;28;20023;-87
2021/09/04 03:14:23;;;;;;;11.90;7.05;;;;;;;;;;5048903;28;20021;-87
2021/09/04 03:16:48;;;;;;;9.98;7.10;;;;;;;;;;5024390;28;20025;-87
2021/09/04 03:19:14;;;;;;;10.82;7.18;;;;;;;;;;5050534;28;20021;-88
2021/09/04 03:21:39;;;;;;;9.73;6.57;;;;;;;;;;5042779;28;20032;-87
2021/09/04 03:24:04;;;;;;;11.23;7.35;;;;;;;;;;5043532;28;20063;-86
2021/09/04 03:26:30;;;;;;;10.73;7.20;;;;;;;;;;5042999;28;20032;-86
2021/09/04 03:28:55;;;;;;;11.43;6.75;;;;;;;;;;5041210;28;20283;-85
2021/09/04 03:31:20;;;;;;;13.50;6.93;;;;;;;;;;5026552;28;20032;-86
2021/09/04 03:33:45;;;;;;;11.00;7.43;;;;;;;;;;5046908;28;20009;-85
2021/09/04 03:36:11;;;;;;;10.77;7.23;;;;;;;;;;5025252;28;20022;-86
2021/09/04 03:38:36;;;;;;;11.83;6.70;;;;;;;;;;5045650;28;20056;-87
2021/09/04 03:41:01;;;;;;;15.03;7.93;;;;;;;;;;5048653;28;20276;-89
2021/09/04 03:43:26;;;;;;;25.00;9.25;;;;;;;;;;5047775;28;20329;-89
2021/09/04 03:45:52;;;;;;;10.15;6.72;;;;;;;;;;5044072;28;20024;-86
2021/09/04 03:48:17;;;;;;;11.43;7.20;;;;;;;;;;5051121;28;20052;-86
2021/09/04 03:50:42;;;;;;;10.73;7.40;;;;;;;;;;5054953;28;20267;-86
2021/09/04 03:53:08;;;;;;;12.77;7.50;;;;;;;;;;5052567;28;20754;-87
2021/09/04 03:55:33;;;;;;;10.40;7.45;;;;;;;;;;5046288;28;20264;-87
2021/09/04 03:57:58;;;;;;;11.75;7.10;;;;;;;;;;5044113;28;20021;-91
2021/09/04 04:00:23;;;;;;;11.53;6.63;;;;;;;;;;5043086;28;20128;-88
2021/09/04 04:02:48;;;;;;;10.43;6.93;;;;;;;;;;5022207;28;20362;-88
2021/09/04 04:05:14;;;;;;;11.55;6.65;;;;;;;;;;5052887;28;20677;-88
2021/09/04 04:07:39;;;;;;;11.73;7.30;;;;;;;;;;5045684;28;20021;-90
2021/09/04 04:10:05;;;;;;;10.23;6.97;;;;;;;;;;5045773;28;20028;-88
2021/09/04 04:12:30;;;;;;;9.77;6.70;;;;;;;;;;5051220;28;20051;-89
2021/09/04 04:14:56;;;;;;;12.63;6.70;;;;;;;;;;5051090;28;20108;-90
2021/09/04 04:17:21;;;;;;;11.80;7.18;;;;;;;;;;5041417;28;20076;-91
2021/09/04 04:19:47;;;;;;;10.05;6.82;;;;;;;;;;5023653;28;20040;-90
2021/09/04 04:22:12;;;;;;;10.75;7.15;;;;;;;;;;5047043;28;20059;-91
2021/09/04 04:24:37;;;;;;;13.50;7.60;;;;;;;;;;5047239;28;20037;-90
2021/09/04 04:27:03;;;;;;;12.67;7.57;;;;;;;;;;5046192;28;20036;-91
2021/09/04 04:29:29;;;;;;;15.20;7.20;;;;;;;;;;5043946;28;20772;-92
2021/09/04 04:31:54;;;;;;;11.68;7.00;;;;;;;;;;5052286;28;20115;-87
2021/09/04 04:34:19;;;;;;;16.40;8.63;;;;;;;;;;5042156;28;20265;-87
2021/09/04 04:36:45;;;;;;;9.77;6.53;;;;;;;;;;5051757;28;20610;-89
2021/09/04 04:39:11;;;;;;;11.50;7.10;;;;;;;;;;5050069;28;20479;-88
2021/09/04 04:41:37;;;;;;;12.90;7.88;;;;;;;;;;5048939;28;20272;-89
2021/09/04 04:44:02;;;;;;;11.37;7.27;;;;;;;;;;5053499;28;20111;-88
2021/09/04 04:46:28;;;;;;;12.65;7.75;;;;;;;;;;5044237;28;20317;-87
2021/09/04 04:48:53;;;;;;;12.40;7.28;;;;;;;;;;5051954;28;20045;-86
2021/09/04 04:51:19;;;;;;;10.60;7.35;;;;;;;;;;5048237;28;20048;-86
2021/09/04 04:53:44;;;;;;;12.27;7.30;;;;;;;;;;5044769;28;20028;-87
2021/09/04 04:56:10;;;;;;;8.88;6.50;;;;;;;;;;5045143;28;20017;-88
2021/09/04 04:58:35;;;;;;;12.20;7.65;;;;;;;;;;5050590;28;20017;-88
2021/09/04 05:01:00;;;;;;;10.23;6.75;;;;;;;;;;5051182;28;20419;-86
2021/09/04 05:03:25;;;;;;;11.93;7.72;;;;;;;;;;5048857;28;20021;-88
2021/09/04 05:05:51;;;;;;;11.07;6.43;;;;;;;;;;5029190;28;20025;-86
2021/09/04 05:08:16;;;;;;;9.75;7.03;;;;;;;;;;5046496;28;20276;-88
2021/09/04 05:10:41;;;;;;;10.75;7.50;;;;;;;;;;5047232;28;20010;-85
2021/09/04 05:13:07;;;;;;;10.17;7.00;;;;;;;;;;5043825;28;20036;-86
2021/09/04 05:15:32;;;;;;;14.32;6.60;;;;;;;;;;5049536;28;20278;-85
2021/09/04 05:17:58;;;;;;;12.07;7.43;;;;;;;;;;5047936;28;20101;-86
2021/09/04 05:20:23;;;;;;;10.93;6.85;;;;;;;;;;5024261;28;20040;-87
2021/09/04 05:22:48;;;;;;;13.25;8.23;;;;;;;;;;5042634;28;20024;-91
2021/09/04 05:25:14;;;;;;;17.70;8.37;;;;;;;;;;5030462;28;20040;-90
2021/09/04 05:27:39;;;;;;;10.43;7.20;;;;;;;;;;5048691;28;20028;-91
2021/09/04 05:30:05;;;;;;;11.18;7.05;;;;;;;;;;5027969;28;20025;-89
2021/09/04 05:32:31;;;;;;;13.32;7.78;;;;;;;;;;5050325;28;20017;-88
2021/09/04 05:34:59;;;;;;;10.98;7.32;;;;;;;;;;5052065;28;20024;-91
2021/09/04 05:37:25;;;;;;;11.35;7.63;;;;;;;;;;5042111;28;20026;-92
2021/09/04 05:42:42;;;;;;;12.02;7.25;;;;;;;;;;5051461;28;20478;-91
2021/09/04 05:45:48;;;;;;;;;;;;;;;;;;;;;
2021/09/04 05:48:46;;;;;;;12.68;8.77;;;;;;;;;;4998886;28;20124;-93
2021/09/04 05:51:12;;;;;;;13.57;8.00;;;;;;;;;;5045039;28;20701;-87
2021/09/04 05:53:39;;;;;;;14.27;8.00;;;;;;;;;;5045844;28;20020;-89
2021/09/04 05:56:04;;;;;;;13.10;8.45;;;;;;;;;;5021829;28;20100;-86
2021/09/04 05:58:29;;;;;;;13.35;8.70;;;;;;;;;;5048088;28;20103;-82
2021/09/04 06:00:55;;;;;;;11.18;7.70;;;;;;;;;;5044187;28;20021;-89
2021/09/04 06:03:21;;;;;;;11.15;8.20;;;;;;;;;;5030449;28;20037;-92
2021/09/04 06:05:51;;;;;;;14.18;10.02;;;;;;;;;;5052336;28;20029;-93
2021/09/04 06:08:17;;;;;;;15.80;9.55;;;;;;;;;;5044372;28;20381;-85
2021/09/04 06:10:42;;;;;;;13.57;8.90;;;;;;;;;;5048337;28;20156;-84
2021/09/04 06:13:07;;;;;;;13.82;8.73;;;;;;;;;;5047639;28;20102;-85
2021/09/04 06:15:32;;;;;;;14.10;8.77;;;;;;;;;;5046093;28;20028;-86
2021/09/04 06:17:58;;;;;;;12.95;9.13;;;;;;;;;;5042928;28;20638;-85
2021/09/04 06:20:23;;;;;;;15.40;9.23;;;;;;;;;;5040098;28;20057;-86
2021/09/04 06:22:49;;;;;;;14.25;8.95;;;;;;;;;;5045845;28;20031;-85
2021/09/04 06:25:15;;;;;;;13.17;8.93;;;;;;;;;;5046797;28;20048;-89
2021/09/04 06:27:40;;;;;;;12.93;9.30;;;;;;;;;;5034002;28;20334;-85
2021/09/04 06:30:06;;;;;;;12.32;9.43;;;;;;;;;;5043359;28;20459;-86
2021/09/04 06:32:31;;;;;;;13.30;8.80;;;;;;;;;;5041857;28;20511;-86
2021/09/04 06:34:57;;;;;;;14.18;10.75;;;;;;;;;;5040971;28;20387;-86
2021/09/04 06:37:23;;;;;;;14.88;9.55;;;;;;;;;;5049057;28;20017;-87
2021/09/04 06:39:48;;;;;;;17.25;10.30;;;;;;;;;;5043938;28;20032;-87
2021/09/04 06:42:13;;;;;;;16.90;8.45;;;;;;;;;;5044717;28;20024;-86
2021/09/04 06:44:39;;;;;;;15.47;9.03;;;;;;;;;;5041210;28;20035;-85
2021/09/04 06:47:04;;;;;;;15.67;9.50;;;;;;;;;;5046709;28;20739;-86
2021/09/04 06:49:29;;;;;;;14.03;8.23;;;;;;;;;;5050228;28;20053;-85
2021/09/04 06:51:54;;;;;;;13.87;9.30;;;;;;;;;;5050917;28;20033;-86
2021/09/04 06:54:24;;;;;;;16.07;8.93;;;;;;;;;;5046076;28;20275;-84
2021/09/04 06:56:49;;;;;;;13.20;9.25;;;;;;;;;;5044745;28;20037;-86
2021/09/04 06:59:14;;;;;;;17.00;9.50;;;;;;;;;;5045145;28;20747;-86
2021/09/04 07:01:39;;;;;;;12.50;9.05;;;;;;;;;;5046726;28;20025;-86
2021/09/04 07:04:05;;;;;;;14.57;8.13;;;;;;;;;;5015589;28;20026;-86
2021/09/04 07:06:30;;;;;;;12.13;8.97;;;;;;;;;;5035886;28;20487;-86
2021/09/04 07:08:55;;;;;;;13.15;10.07;;;;;;;;;;5042215;28;20112;-83
2021/09/04 07:11:21;;;;;;;11.20;7.80;;;;;;;;;;5049291;28;20028;-84
2021/09/04 07:13:46;;;;;;;18.73;9.50;;;;;;;;;;5022101;28;20279;-85
2021/09/04 07:16:11;;;;;;;12.23;7.70;;;;;;;;;;5044358;28;20032;-84
2021/09/04 07:18:36;;;;;;;12.23;8.38;;;;;;;;;;5043290;28;20026;-85
2021/09/04 07:21:02;;;;;;;11.73;7.97;;;;;;;;;;5052359;28;20154;-84
2021/09/04 07:23:27;;;;;;;14.73;8.57;;;;;;;;;;5030961;28;20033;-85
2021/09/04 07:25:52;;;;;;;10.50;7.43;;;;;;;;;;5046372;28;20017;-86
2021/09/04 07:28:18;;;;;;;11.30;8.23;;;;;;;;;;5049947;28;20483;-88
2021/09/04 07:30:43;;;;;;;10.63;6.70;;;;;;;;;;5050204;28;20432;-84
2021/09/04 07:33:09;;;;;;;11.45;7.18;;;;;;;;;;5051117;28;20028;-86
2021/09/04 07:35:34;;;;;;;11.10;7.30;;;;;;;;;;5057916;28;20017;-89
2021/09/04 07:38:00;;;;;;;11.73;7.47;;;;;;;;;;5049842;28;20049;-86
2021/09/04 07:40:25;;;;;;;11.55;6.63;;;;;;;;;;5054186;28;20101;-88
2021/09/04 07:42:50;;;;;;;11.00;7.50;;;;;;;;;;5024316;28;20055;-85
2021/09/04 07:45:16;;;;;;;9.48;7.07;;;;;;;;;;5047627;28;20074;-84
2021/09/04 07:47:41;;;;;;;9.57;6.63;;;;;;;;;;5028604;28;20027;-85
2021/09/04 07:50:07;;;;;;;9.13;7.07;;;;;;;;;;5057040;28;20059;-83
2021/09/04 07:52:32;;;;;;;10.52;6.93;;;;;;;;;;5023676;28;20109;-83
2021/09/04 07:54:57;;;;;;;10.60;8.32;;;;;;;;;;5051297;28;20116;-83
2021/09/04 07:57:23;;;;;;;9.70;6.80;;;;;;;;;;5047214;28;20480;-83
2021/09/04 07:59:48;;;;;;;11.38;7.35;;;;;;;;;;5046437;28;20464;-87
2021/09/04 08:02:13;;;;;;;13.02;7.85;;;;;;;;;;5047206;28;20013;-85
2021/09/04 08:04:39;;;;;;;11.55;7.22;;;;;;;;;;5049452;28;20108;-83
2021/09/04 08:07:05;;;;;;;14.00;7.15;;;;;;;;;;5045854;28;20598;-85
2021/09/04 08:09:30;;;;;;;10.10;6.60;;;;;;;;;;5051536;28;20016;-85
2021/09/04 08:11:56;;;;;;;9.80;7.03;;;;;;;;;;5046365;28;20448;-83
2021/09/04 08:14:21;;;;;;;9.05;5.85;;;;;;;;;;5050894;28;20035;-85
2021/09/04 08:16:47;;;;;;;9.13;6.13;;;;;;;;;;5051667;28;20075;-86
2021/09/04 08:19:12;;;;;;;8.13;6.03;;;;;;;;;;5044410;28;20466;-83
2021/09/04 08:21:38;;;;;;;9.60;6.05;;;;;;;;;;5049287;28;20055;-86
2021/09/04 08:24:03;;;;;;;13.15;6.20;;;;;;;;;;5035394;28;20028;-86
2021/09/04 08:26:36;;;;;;;11.75;7.60;;;;;;;;;;5052717;28;20021;-86
2021/09/04 08:29:02;;;;;;;10.75;6.68;;;;;;;;;;5046506;28;20442;-86
2021/09/04 08:31:27;;;;;;;10.07;6.60;;;;;;;;;;5053320;28;20017;-85
2021/09/04 08:33:53;;;;;;;8.50;5.85;;;;;;;;;;5033722;28;20052;-86
2021/09/04 08:36:18;;;;;;;8.70;5.90;;;;;;;;;;5052010;28;20466;-83
2021/09/04 08:38:44;;;;;;;9.98;6.10;;;;;;;;;;5050885;28;20025;-86
2021/09/04 08:41:09;;;;;;;11.50;6.35;;;;;;;;;;5050152;28;20763;-87
2021/09/04 08:43:37;;;;;;;9.38;6.38;;;;;;;;;;5042643;28;20045;-85
2021/09/04 08:46:02;;;;;;;9.20;5.90;;;;;;;;;;5026694;28;20025;-85
2021/09/04 08:48:28;;;;;;;8.82;6.03;;;;;;;;;;5049355;28;20063;-85
2021/09/04 08:50:53;;;;;;;9.20;5.80;;;;;;;;;;5049006;28;20035;-85
2021/09/04 08:53:20;;;;;;;10.50;6.03;;;;;;;;;;5048369;28;20025;-84
2021/09/04 08:55:45;;;;;;;8.00;5.57;;;;;;;;;;5043771;28;20017;-85
2021/09/04 08:58:10;;;;;;;6.55;5.28;;;;;;;;;;5050508;28;20029;-86
2021/09/04 09:00:38;;;;;;;8.05;5.80;;;;;;;;;;5052054;28;20032;-84
2021/09/04 09:03:04;;;;;;;7.63;5.38;;;;;;;;;;5026162;28;20024;-85
2021/09/04 09:05:41;;;;;;;10.60;5.97;;;;;;;;;;5049019;28;20017;-86
2021/09/04 09:08:13;;;;;;;8.70;5.80;;;;;;;;;;5050406;28;20356;-85
2021/09/04 09:10:59;;;;;;;10.32;5.82;;;;;;;;;;5049715;28;20020;-84
2021/09/04 09:13:26;;;;;;;8.10;5.53;;;;;;;;;;5049310;28;20029;-84
2021/09/04 09:15:59;;;;;;;9.63;5.68;;;;;;;;;;5045881;28;20053;-87
2021/09/04 09:18:25;;;;;;;6.47;4.90;;;;;;;;;;5043358;28;20066;-86
2021/09/04 09:21:01;;;;;;;7.90;5.65;;;;;;;;;;5026389;28;20376;-84
2021/09/04 09:23:27;;;;;;;11.05;5.90;;;;;;;;;;5047145;28;20425;-85
2021/09/04 09:25:52;;;;;;;8.88;5.85;;;;;;;;;;5046190;28;20021;-85
2021/09/04 09:28:20;;;;;;;8.90;5.40;;;;;;;;;;5043770;28;20116;-87
2021/09/04 09:30:56;;;;;;;8.33;5.07;;;;;;;;;;5037213;28;20017;-90
2021/09/04 09:33:44;;;;;;;9.15;5.60;;;;;;;;;;5041674;28;20259;-91
2021/09/04 09:36:20;;;;;;;9.40;5.18;;;;;;;;;;5034579;28;20384;-89
2021/09/04 09:38:58;;;;;;;7.32;5.30;;;;;;;;;;5043781;28;20029;-89
2021/09/04 09:41:33;;;;;;;7.78;5.18;;;;;;;;;;5050350;28;20025;-90
2021/09/04 09:44:08;;;;;;;7.25;4.97;;;;;;;;;;5045028;28;20043;-90
2021/09/04 09:46:53;;;;;;;8.30;5.60;;;;;;;;;;5050622;28;20024;-91
2021/09/04 09:49:24;;;;;;;6.57;5.13;;;;;;;;;;5024892;28;20383;-90
2021/09/04 09:55:14;;;;;;;7.22;5.22;;;;;;;;;;5017138;28;20031;-89
2021/09/04 09:57:46;;;;;;;7.05;5.45;;;;;;;;;;5051385;28;20391;-88
2021/09/04 10:00:12;;;;;;;8.52;5.95;;;;;;;;;;5046474;28;20021;-90
2021/09/04 10:02:41;;;;;;;9.73;5.88;;;;;;;;;;5039191;28;20023;-90
2021/09/04 10:05:09;;;;;;;8.05;5.40;;;;;;;;;;5046293;28;20048;-87
2021/09/04 10:07:47;;;;;;;;;;;;;;;;;;;;;
2021/09/04 10:10:18;;;;;;;8.13;5.07;;;;;;;;;;5035414;28;20101;-87
2021/09/04 10:13:04;;;;;;;7.78;5.32;;;;;;;;;;5044203;28;20033;-89
2021/09/04 10:15:31;;;;;;;6.28;4.65;;;;;;;;;;5051207;28;20483;-89
2021/09/04 10:18:18;;;;;;;9.32;4.68;;;;;;;;;;5047690;28;20700;-90
2021/09/04 10:20:53;;;;;;;7.55;4.50;;;;;;;;;;5046877;28;20029;-87
2021/09/04 10:23:48;;;;;;;7.40;4.60;;;;;;;;;;5045348;28;20813;-89
2021/09/04 10:26:28;;;;;;;9.50;4.57;;;;;;;;;;5050494;28;20043;-88
2021/09/04 10:29:23;;;;;;;8.00;4.97;;;;;;;;;;5047465;28;20383;-90
2021/09/04 10:32:15;;;;;;;5.97;4.47;;;;;;;;;;5018881;28;20028;-88
2021/09/04 10:37:29;;;;;;;7.57;4.63;;;;;;;;;;5039490;28;20450;-89
2021/09/04 10:40:02;;;;;;;7.43;5.15;;;;;;;;;;5050350;28;20375;-85
2021/09/04 10:42:34;;;;;;;9.85;5.38;;;;;;;;;;5041255;28;20021;-86
2021/09/04 10:45:01;;;;;;;6.30;4.47;;;;;;;;;;5023981;28;20036;-87
2021/09/04 10:47:26;;;;;;;6.45;4.53;;;;;;;;;;5037912;28;20022;-86
2021/09/04 10:49:53;;;;;;;9.40;5.47;;;;;;;;;;5032321;28;20048;-86
2021/09/04 10:52:37;;;;;;;8.07;4.72;;;;;;;;;;5043225;28;20048;-86
2021/09/04 10:55:03;;;;;;;7.07;4.45;;;;;;;;;;5027314;28;20099;-86
2021/09/04 10:57:43;;;;;;;8.70;4.85;;;;;;;;;;5048671;28;20048;-88
2021/09/04 11:00:16;;;;;;;6.15;4.22;;;;;;;;;;5044570;28;20375;-85
2021/09/04 11:02:58;;;;;;;7.13;4.10;;;;;;;;;;5041445;28;20056;-86
2021/09/04 11:05:28;;;;;;;5.37;4.07;;;;;;;;;;5043251;28;20052;-87
2021/09/04 11:08:04;;;;;;;5.35;3.97;;;;;;;;;;5048198;28;20580;-86
2021/09/04 11:10:29;;;;;;;6.53;4.20;;;;;;;;;;5044857;28;20420;-87
2021/09/04 11:13:05;;;;;;;5.05;4.03;;;;;;;;;;5045856;28;20099;-85
2021/09/04 11:15:33;;;;;;;5.28;4.00;;;;;;;;;;5037401;28;20078;-86
2021/09/04 11:17:59;;;;;;;6.35;4.38;;;;;;;;;;5048184;28;20574;-87
2021/09/04 11:20:28;;;;;;;5.85;4.15;;;;;;;;;;5047486;28;20017;-87
2021/09/04 11:23:02;;;;;;;6.20;3.90;;;;;;;;;;5044678;28;20047;-86
2021/09/04 11:25:27;;;;;;;6.40;3.60;;;;;;;;;;5048571;28;20372;-85
2021/09/04 11:27:52;;;;;;;6.35;4.10;;;;;;;;;;5044979;28;20028;-87
2021/09/04 11:30:20;;;;;;;5.27;3.73;;;;;;;;;;5045915;28;20013;-86
2021/09/04 11:32:46;;;;;;;6.35;4.50;;;;;;;;;;5044623;28;20275;-86
2021/09/04 11:35:11;;;;;;;6.55;4.20;;;;;;;;;;5026588;28;20088;-89
2021/09/04 11:37:38;;;;;;;7.28;4.65;;;;;;;;;;5039880;28;20025;-88
2021/09/04 11:40:13;;;;;;;6.88;4.32;;;;;;;;;;5045582;28;20376;-87
2021/09/04 11:42:42;;;;;;;6.35;4.47;;;;;;;;;;5046878;28;20923;-86
2021/09/04 11:45:08;;;;;;;7.10;4.47;;;;;;;;;;5042078;28;20024;-85
2021/09/04 11:47:35;;;;;;;6.50;4.78;;;;;;;;;;5041640;28;20435;-86
2021/09/04 11:50:02;;;;;;;7.07;4.60;;;;;;;;;;5045280;28;20130;-85
2021/09/04 11:52:32;;;;;;;6.97;4.75;;;;;;;;;;5038236;28;20039;-86
2021/09/04 11:55:03;;;;;;;6.90;4.80;;;;;;;;;;5044844;28;20419;-86
2021/09/04 11:57:31;;;;;;;5.45;4.20;;;;;;;;;;5029508;28;20462;-88
2021/09/04 11:59:57;;;;;;;7.82;5.43;;;;;;;;;;5044373;28;20410;-87
2021/09/04 12:02:23;;;;;;;7.20;5.30;;;;;;;;;;5045630;28;20440;-87
2021/09/04 12:04:48;;;;;;;6.88;4.88;;;;;;;;;;5047206;28;20109;-86
2021/09/04 12:07:13;;;;;;;7.80;6.10;;;;;;;;;;5018482;28;20479;-86
2021/09/04 12:09:39;;;;;;;7.15;4.70;;;;;;;;;;5047958;28;20029;-85
2021/09/04 12:12:04;;;;;;;6.03;4.57;;;;;;;;;;5028575;28;20036;-87
2021/09/04 12:14:31;;;;;;;6.40;4.40;;;;;;;;;;5047909;28;20083;-85
2021/09/04 12:16:56;;;;;;;7.60;4.40;;;;;;;;;;5042556;28;20379;-87
2021/09/04 12:19:22;;;;;;;8.73;5.07;;;;;;;;;;5046674;28;20017;-88
2021/09/04 12:21:51;;;;;;;6.68;4.57;;;;;;;;;;5050029;28;20029;-86
2021/09/04 12:24:17;;;;;;;7.75;4.53;;;;;;;;;;5052134;28;20363;-85
2021/09/04 12:26:49;;;;;;;7.72;4.20;;;;;;;;;;5044507;28;20033;-86
2021/09/04 12:29:14;;;;;;;5.40;4.00;;;;;;;;;;5042600;28;20040;-86
2021/09/04 12:31:41;;;;;;;6.15;4.53;;;;;;;;;;5026183;28;20616;-86
2021/09/04 12:34:06;;;;;;;7.35;4.03;;;;;;;;;;5043447;28;20427;-85
2021/09/04 12:36:31;;;;;;;7.22;4.68;;;;;;;;;;5023396;28;20025;-86
2021/09/04 12:38:58;;;;;;;6.25;4.20;;;;;;;;;;5028085;28;20022;-85
2021/09/04 12:41:30;;;;;;;7.80;4.35;;;;;;;;;;5037724;28;20384;-84
2021/09/04 12:43:58;;;;;;;6.90;4.70;;;;;;;;;;5042576;28;20022;-83
2021/09/04 12:46:29;;;;;;;7.03;5.00;;;;;;;;;;5044408;28;20014;-88
2021/09/04 12:48:55;;;;;;;7.35;4.38;;;;;;;;;;5042732;28;20396;-88
2021/09/04 12:51:23;;;;;;;6.32;3.92;;;;;;;;;;5048568;28;20013;-89
2021/09/04 12:54:02;;;;;;;7.63;4.80;;;;;;;;;;5043322;28;20020;-86
2021/09/04 12:56:43;;;;;;;7.00;4.75;;;;;;;;;;5039397;28;20383;-87
2021/09/04 12:59:09;;;;;;;7.38;4.38;;;;;;;;;;5041953;28;20036;-88
2021/09/04 13:01:35;;;;;;;7.20;4.68;;;;;;;;;;5030008;28;20442;-86
2021/09/04 13:04:02;;;;;;;7.35;3.70;;;;;;;;;;5045285;28;20116;-87
2021/09/04 13:06:27;;;;;;;6.57;4.10;;;;;;;;;;5024125;28;20048;-86
2021/09/04 13:08:53;;;;;;;6.50;4.25;;;;;;;;;;5031597;28;20017;-84
2021/09/04 13:11:18;;;;;;;6.50;3.80;;;;;;;;;;5046926;28;20013;-87
2021/09/04 13:13:43;;;;;;;5.10;3.97;;;;;;;;;;5045434;28;20056;-85
2021/09/04 13:16:09;;;;;;;5.90;3.90;;;;;;;;;;5050186;28;20013;-85
2021/09/04 13:18:34;;;;;;;5.15;3.88;;;;;;;;;;5026503;28;20029;-86
2021/09/04 13:20:59;;;;;;;7.50;4.47;;;;;;;;;;5042360;28;20025;-86
2021/09/04 13:23:25;;;;;;;9.57;4.13;;;;;;;;;;5044438;28;20358;-86
2021/09/04 13:25:50;;;;;;;7.93;4.03;;;;;;;;;;5048909;28;20063;-85
2021/09/04 13:28:15;;;;;;;6.57;4.30;;;;;;;;;;5049793;28;20017;-87
2021/09/04 13:30:41;;;;;;;7.35;4.15;;;;;;;;;;5043761;28;20116;-87
2021/09/04 13:33:06;;;;;;;6.88;4.22;;;;;;;;;;5049054;28;20052;-85
2021/09/04 13:35:32;;;;;;;6.32;4.07;;;;;;;;;;5048621;28;20025;-85
2021/09/04 13:37:57;;;;;;;6.97;4.30;;;;;;;;;;5041205;28;20030;-85
2021/09/04 13:40:23;;;;;;;6.88;4.85;;;;;;;;;;5044926;28;20127;-84
2021/09/04 13:42:48;;;;;;;5.68;4.00;;;;;;;;;;5048214;28;20021;-84
2021/09/04 13:45:14;;;;;;;5.28;3.90;;;;;;;;;;5043988;28;20096;-84
2021/09/04 13:47:39;;;;;;;11.33;4.53;;;;;;;;;;5045133;28;20041;-85
2021/09/04 13:50:04;;;;;;;6.32;4.05;;;;;;;;;;5044726;28;20306;-84
2021/09/04 13:52:30;;;;;;;5.90;4.15;;;;;;;;;;5033705;28;20013;-88
2021/09/04 13:54:56;;;;;;;4.45;3.70;;;;;;;;;;5039410;28;20054;-85
2021/09/04 13:57:21;;;;;;;5.90;4.10;;;;;;;;;;5043611;28;20134;-88
2021/09/04 13:59:46;;;;;;;5.82;4.25;;;;;;;;;;5042005;28;20031;-88
2021/09/04 14:02:14;;;;;;;8.07;4.47;;;;;;;;;;5020753;28;20060;-88
2021/09/04 14:04:39;;;;;;;4.85;4.13;;;;;;;;;;5048505;28;20342;-87
2021/09/04 14:07:05;;;;;;;7.03;4.20;;;;;;;;;;5032036;28;20631;-88
2021/09/04 14:09:34;;;;;;;6.57;4.20;;;;;;;;;;5019701;28;20104;-88
2021/09/04 14:12:00;;;;;;;5.78;3.92;;;;;;;;;;5031666;28;20295;-88
2021/09/04 14:14:25;;;;;;;5.75;3.53;;;;;;;;;;5041447;28;20017;-89
2021/09/04 14:16:51;;;;;;;6.63;4.18;;;;;;;;;;5044672;28;20021;-87
2021/09/04 14:19:16;;;;;;;8.52;4.25;;;;;;;;;;5047829;28;20036;-89
2021/09/04 14:21:42;;;;;;;8.93;4.88;;;;;;;;;;5049553;28;20029;-87
2021/09/04 14:24:07;;;;;;;5.13;3.63;;;;;;;;;;5053672;28;20027;-86
2021/09/04 14:26:41;;;;;;;5.75;4.22;;;;;;;;;;5047286;28;20033;-94
2021/09/04 14:29:09;;;;;;;6.40;4.45;;;;;;;;;;5045063;28;20017;-87
2021/09/04 14:31:37;;;;;;;6.05;3.85;;;;;;;;;;5049317;28;20432;-90
2021/09/04 14:34:02;;;;;;;6.53;4.20;;;;;;;;;;5045572;28;20110;-87
2021/09/04 14:36:27;;;;;;;7.18;4.43;;;;;;;;;;5048903;28;20020;-85
2021/09/04 14:38:53;;;;;;;7.68;4.35;;;;;;;;;;5042850;28;20021;-86
2021/09/04 14:41:18;;;;;;;8.45;4.43;;;;;;;;;;5049069;28;20048;-85
2021/09/04 14:43:44;;;;;;;10.25;5.05;;;;;;;;;;5042106;28;20031;-86
2021/09/04 14:46:09;;;;;;;7.90;4.50;;;;;;;;;;5046925;28;20035;-87